Terminal Aerodrome Forecast
Issued by NWS

Home | Current Version | Previous Version | Text Only | Print | Product List | Glossary On
Versions: 1 2 3 4 5 6 7 8 9 10 11 12 13 14 15
000
FTPA31 PHFO 261740
TAFHNY
TAF
PHNY 261740Z 2618/2718 VRB06KT P6SM VCSH FEW025 BKN060
     FM261900 26007KT P6SM VCSH BKN020
     FM270500 VRB05KT P6SM VCSH SCT020 BKN040=

USA.gov is the U.S. government's official web portal to all federal, state and local government web resources and services.